Whitefish, Canada
Current Conditions -  °F | °C
As of 5:00 PM on Saturday 25 Oct 2014 (Local Time) from CYSB Reporting Station
Broken Clouds Broken Clouds  
Wind Chill: 11°   Ceiling: 5500
Heat Index: 11°   Visibility: 20mi
Dew Point:   Wind: 21mph
Humidity: 58%   Direction: 280°W
Pressure: 29.47"   Gusts: 32mph
Location:  46.37°N, 81.32°W
Report Text: CYSB 252100Z 28018G28KT 20SM BKN055 11/03 A2947 RMK SC7 SLP985 DENSITY ALT 1400FT
Loading
Personal Weather Stations






























Interactive Weather Map
Tropical Storm Tracking
New forecast layout! Learn more

10-Day Weather Forecast

Advertisements
Track Severe Weather on mobile